KBFI/BFI METAR and TAF weather

Enter ICAO airport designator
Station Type Date Time Source
KBFI METAR 2019/05/25 14:53 UTC NOAA

KBFI 251453Z 18005KT 10SM OVC036 12/07 A2994 RMK AO2 SLP137 T01220072 56014


Station Type Date Time Source
KBFI Decoded METAR 2019/05/25 14:53 UTC NOAA

SEATTLE BOEING FIELD, WA, United States (KBFI) 47-33N 122-19W 4M
May 25, 2019 - 10:53 AM EDT / 2019.05.25 1453 UTC
Wind: from the S (180 degrees) at 6 MPH (5 KT):0
Visibility: 10 mile(s):0
Sky conditions: overcast
Temperature: 54.0 F (12.2 C)
Dew Point: 45.0 F (7.2 C)
Relative Humidity: 71%
Pressure (altimeter): 29.94 in. Hg (1013 hPa)
Pressure tendency: 0.04 inches (1.4 hPa) lower than three hours ago
ob: KBFI 251453Z 18005KT 10SM OVC036 12/07 A2994 RMK AO2 SLP137 T01220072 56014
cycle: 15

Station Type Date Time Source
KBFI TAF 2019/05/25 12:36 UTC NOAA

TAF KBFI 251132Z 2512/2612 17006KT P6SM SCT025 OVC035
FM251500 17006KT P6SM SCT015 OVC025
FM251800 17006KT P6SM -SHRA BKN015 OVC025
FM260200 VRB03KT P6SM VCSH SCT020 BKN030 BKN045
FM260500 VRB03KT P6SM BKN050 BKN100
FM260900 VRB03KT P6SM SCT060 BKN120

Example: see airport list